createdAt,value
2018-11-04T00:00:19.004Z,58.45
2018-11-04T00:02:47.970Z,65.80
2018-11-04T00:05:16.715Z,66.07
2018-11-04T00:07:46.138Z,57.88
2018-11-04T00:10:14.618Z,67.85
2018-11-04T00:12:43.064Z,67.17
2018-11-04T00:15:11.848Z,63.35
2018-11-04T00:17:40.486Z,61.80
2018-11-04T00:20:11.116Z,58.98
2018-11-04T00:22:39.547Z,55.03
2018-11-04T00:25:09.029Z,51.85
2018-11-04T00:27:37.543Z,67.65
2018-11-04T00:30:07.347Z,59.18
2018-11-04T00:32:35.762Z,56.10
2018-11-04T00:35:04.180Z,61.40
2018-11-04T00:37:32.611Z,54.88
2018-11-04T00:40:01.151Z,60.12
2018-11-04T00:42:29.655Z,49.77
2018-11-04T00:44:58.189Z,50.50
2018-11-04T00:47:26.879Z,57.45
2018-11-04T00:49:55.360Z,58.00
2018-11-04T00:52:23.798Z,56.33
2018-11-04T00:54:52.202Z,54.00
2018-11-04T00:57:20.592Z,57.70
2018-11-04T00:59:49.956Z,61.55
2018-11-04T01:02:18.376Z,54.23
2018-11-04T01:04:46.928Z,51.92
2018-11-04T01:07:15.375Z,56.83
2018-11-04T01:09:43.795Z,61.15
2018-11-04T01:12:13.359Z,52.62
2018-11-04T01:14:41.871Z,57.05
2018-11-04T01:17:10.383Z,69.07
2018-11-04T01:19:38.820Z,63.78
2018-11-04T01:22:07.777Z,58.87
2018-11-04T01:24:36.269Z,68.65
2018-11-04T01:27:04.579Z,56.18
2018-11-04T01:29:33.224Z,57.75
2018-11-04T01:32:01.703Z,60.05
2018-11-04T01:34:30.175Z,52.20
2018-11-04T01:36:58.592Z,62.95
2018-11-04T01:39:27.150Z,60.00
2018-11-04T01:41:55.735Z,65.00
2018-11-04T01:44:24.221Z,53.80
2018-11-04T01:46:53.387Z,58.68
2018-11-04T01:49:22.021Z,54.97
2018-11-04T01:51:50.498Z,55.83
2018-11-04T01:54:19.089Z,54.33
2018-11-04T01:56:47.987Z,65.50
2018-11-04T01:59:16.437Z,59.67
2018-11-04T02:01:44.851Z,52.93
2018-11-04T02:04:13.239Z,57.50
2018-11-04T02:06:41.626Z,46.07
2018-11-04T02:09:11.072Z,48.23
2018-11-04T02:14:43.909Z,51.27
2018-11-04T02:17:12.219Z,60.87
2018-11-04T02:19:40.555Z,68.93
2018-11-04T02:22:08.860Z,68.37
2018-11-04T02:24:37.165Z,77.00
2018-11-04T02:27:06.334Z,77.93
2018-11-04T02:29:34.739Z,88.83
2018-11-04T02:32:03.951Z,89.27
2018-11-04T02:34:33.825Z,99.10
2018-11-04T02:37:02.842Z,108.77
2018-11-04T02:39:31.840Z,104.80
2018-11-04T02:42:00.863Z,88.87
2018-11-04T02:44:29.423Z,91.67
2018-11-04T02:46:57.825Z,86.63
2018-11-04T02:49:26.068Z,75.07
2018-11-04T02:51:54.496Z,86.83
2018-11-04T02:54:22.883Z,89.20
2018-11-04T02:56:51.255Z,77.30
2018-11-04T02:59:19.552Z,75.50
2018-11-04T03:01:47.945Z,80.60
2018-11-04T03:04:16.179Z,84.67
2018-11-04T03:06:44.483Z,76.10
2018-11-04T03:09:12.795Z,63.83
2018-11-04T03:11:41.135Z,71.97
2018-11-04T03:14:09.467Z,76.93
2018-11-04T03:16:37.815Z,87.57
2018-11-04T03:19:06.135Z,81.40
2018-11-04T03:21:34.448Z,81.23
2018-11-04T03:24:02.895Z,76.33
2018-11-04T03:26:31.348Z,78.43
2018-11-04T03:28:59.675Z,68.03
2018-11-04T03:31:27.992Z,73.00
2018-11-04T03:33:57.171Z,75.53
2018-11-04T03:36:25.584Z,66.67
2018-11-04T03:38:53.959Z,65.87
2018-11-04T03:41:22.374Z,74.47
2018-11-04T03:43:50.735Z,77.73
2018-11-04T03:46:19.207Z,63.67
2018-11-04T03:48:47.787Z,68.93
2018-11-04T03:51:16.163Z,72.83
2018-11-04T03:53:44.471Z,64.47
2018-11-04T03:56:12.828Z,67.33
2018-11-04T03:58:41.166Z,72.63
2018-11-04T04:01:11.416Z,63.50
2018-11-04T04:03:39.727Z,75.43
2018-11-04T04:06:10.472Z,69.23
2018-11-04T04:08:39.942Z,75.40
2018-11-04T04:11:08.271Z,74.83
2018-11-04T04:13:36.640Z,80.10
2018-11-04T04:16:04.976Z,72.10
2018-11-04T04:18:33.307Z,78.63
2018-11-04T04:21:08.859Z,78.00
2018-11-04T04:23:37.987Z,77.90
2018-11-04T04:26:06.902Z,76.70
2018-11-04T04:28:35.241Z,75.40
2018-11-04T04:31:03.651Z,78.53
2018-11-04T04:33:32.150Z,77.43
2018-11-04T04:36:00.595Z,73.20
2018-11-04T04:38:29.232Z,78.97
2018-11-04T04:40:57.568Z,69.63
2018-11-04T04:43:25.871Z,71.03
2018-11-04T04:45:54.350Z,75.27
2018-11-04T04:48:23.171Z,71.50
2018-11-04T04:50:51.490Z,70.23
2018-11-04T04:53:23.020Z,74.43
2018-11-04T04:55:51.855Z,71.43
2018-11-04T04:58:21.284Z,63.27
2018-11-04T05:00:49.649Z,72.87
2018-11-04T05:03:17.947Z,72.10
2018-11-04T05:05:46.284Z,67.40
2018-11-04T05:08:14.587Z,70.63
2018-11-04T05:10:42.903Z,68.90
2018-11-04T05:13:11.251Z,66.10
2018-11-04T05:15:39.544Z,70.40
2018-11-04T05:18:08.203Z,66.43
2018-11-04T05:20:36.575Z,70.93
2018-11-04T05:23:04.916Z,71.80
2018-11-04T05:25:33.241Z,71.43
2018-11-04T05:28:01.600Z,67.67
2018-11-04T05:30:30.055Z,69.23
2018-11-04T05:32:58.456Z,69.57
2018-11-04T05:35:26.767Z,77.10
2018-11-04T05:37:55.158Z,80.17
2018-11-04T05:40:23.475Z,78.07
2018-11-04T05:42:51.826Z,73.00
2018-11-04T05:45:20.176Z,73.77
2018-11-04T05:47:48.539Z,72.00
2018-11-04T05:52:57.062Z,86.30
2018-11-04T05:55:25.803Z,77.03
2018-11-04T05:57:54.159Z,79.07
2018-11-04T06:00:22.699Z,77.23
2018-11-04T06:02:51.015Z,74.00
2018-11-04T06:05:19.330Z,77.53
2018-11-04T06:07:48.287Z,82.37
2018-11-04T06:10:16.879Z,75.00
2018-11-04T06:12:45.203Z,69.70
2018-11-04T06:15:13.662Z,72.33
2018-11-04T06:17:42.011Z,76.93
2018-11-04T06:20:11.515Z,78.37
2018-11-04T06:22:40.167Z,83.13
2018-11-04T06:25:08.564Z,74.73
2018-11-04T06:27:37.020Z,76.80
2018-11-04T06:30:07.347Z,78.83
2018-11-04T06:32:37.463Z,78.10
2018-11-04T06:35:06.780Z,78.57
2018-11-04T06:37:35.390Z,85.30
2018-11-04T06:40:03.815Z,82.33
2018-11-04T06:42:32.154Z,81.00
2018-11-04T06:45:00.515Z,80.50
2018-11-04T06:47:30.101Z,78.40
2018-11-04T06:49:58.435Z,77.60
2018-11-04T06:52:26.796Z,75.50
2018-11-04T06:54:58.010Z,75.00
2018-11-04T06:57:26.399Z,72.93
2018-11-04T06:59:54.791Z,80.27
2018-11-04T07:02:23.331Z,79.83
2018-11-04T07:04:51.903Z,73.80
2018-11-04T07:07:20.243Z,82.93
2018-11-04T07:09:48.572Z,78.80
2018-11-04T07:12:16.886Z,83.70
2018-11-04T07:14:45.239Z,78.33
2018-11-04T07:17:13.575Z,86.03
2018-11-04T07:19:41.933Z,81.83
2018-11-04T07:22:10.355Z,87.70
2018-11-04T07:24:38.684Z,79.53
2018-11-04T07:27:07.467Z,76.00
2018-11-04T07:29:35.815Z,78.70
2018-11-04T07:32:04.324Z,77.60
2018-11-04T07:34:32.686Z,77.63
2018-11-04T07:37:01.068Z,81.57
2018-11-04T07:39:29.391Z,88.23
2018-11-04T07:41:57.795Z,85.80
2018-11-04T07:44:26.281Z,82.43
2018-11-04T07:46:54.555Z,79.37
2018-11-04T07:49:22.892Z,85.07
2018-11-04T07:51:51.329Z,105.00
2018-11-04T07:54:19.667Z,94.83
2018-11-04T07:56:48.079Z,103.43
2018-11-04T07:59:16.324Z,95.63
2018-11-04T08:01:44.668Z,104.97
2018-11-04T08:04:13.620Z,96.63
2018-11-04T08:06:41.811Z,94.33
2018-11-04T08:09:10.707Z,90.83
2018-11-04T08:11:39.315Z,106.63
2018-11-04T08:14:07.656Z,95.60
2018-11-04T08:16:36.132Z,111.53
2018-11-04T08:19:04.479Z,99.90
2018-11-04T08:21:32.819Z,87.93
2018-11-04T08:24:01.159Z,97.10
2018-11-04T08:26:29.508Z,89.20
2018-11-04T08:28:57.883Z,102.73
2018-11-04T08:31:26.275Z,101.40
2018-11-04T08:33:54.652Z,96.90
2018-11-04T08:36:24.123Z,98.30
2018-11-04T08:38:52.567Z,95.43
2018-11-04T08:41:21.915Z,95.77
2018-11-04T08:43:50.268Z,92.77
2018-11-04T08:46:18.615Z,91.93
2018-11-04T08:48:46.939Z,104.00
2018-11-04T08:51:15.283Z,92.30
2018-11-04T08:53:43.629Z,105.00
2018-11-04T08:56:11.946Z,94.50
2018-11-04T08:58:40.264Z,93.23
2018-11-04T09:01:08.754Z,86.13
2018-11-04T09:03:37.115Z,93.40
2018-11-04T09:06:05.615Z,96.23
2018-11-04T09:08:33.939Z,85.67
2018-11-04T09:11:02.312Z,91.30
2018-11-04T09:13:30.951Z,93.20
2018-11-04T09:15:59.302Z,91.47
2018-11-04T09:18:27.627Z,87.80
2018-11-04T09:20:56.031Z,86.37
2018-11-04T09:23:24.369Z,94.30
2018-11-04T09:25:52.718Z,95.80
2018-11-04T09:28:21.134Z,98.37
2018-11-04T09:30:49.513Z,101.63
2018-11-04T09:33:17.859Z,90.90
2018-11-04T09:35:46.370Z,96.60
2018-11-04T09:38:15.831Z,89.80
2018-11-04T09:40:44.148Z,93.90
2018-11-04T09:43:12.495Z,93.67
2018-11-04T09:45:40.811Z,93.20
2018-11-04T09:48:09.132Z,94.73
2018-11-04T09:50:37.460Z,90.10
2018-11-04T09:53:06.056Z,97.43
2018-11-04T09:55:34.451Z,92.10
2018-11-04T09:58:02.819Z,107.40
2018-11-04T10:00:31.194Z,106.37
2018-11-04T10:02:59.547Z,88.87
2018-11-04T10:05:27.900Z,81.80
2018-11-04T10:07:56.284Z,84.70
2018-11-04T10:10:24.681Z,91.73
2018-11-04T10:12:53.091Z,91.63
2018-11-04T10:15:21.555Z,88.03
2018-11-04T10:17:51.263Z,85.83
2018-11-04T10:20:19.845Z,89.83
2018-11-04T10:22:47.921Z,89.10
2018-11-04T10:25:16.260Z,87.80
2018-11-04T10:27:44.579Z,94.40
2018-11-04T10:30:16.857Z,91.53
2018-11-04T10:32:45.291Z,94.30
2018-11-04T10:35:13.627Z,82.30
2018-11-04T10:37:42.421Z,89.90
2018-11-04T10:40:11.619Z,86.83
2018-11-04T10:42:39.964Z,82.30
2018-11-04T10:45:09.223Z,83.43
2018-11-04T10:47:37.716Z,81.60
2018-11-04T10:50:08.098Z,80.27
2018-11-04T10:52:36.575Z,77.80
2018-11-04T10:55:05.586Z,82.23
2018-11-04T10:57:34.087Z,74.97
2018-11-04T11:00:03.685Z,84.97
2018-11-04T11:02:32.246Z,74.97
2018-11-04T11:05:00.864Z,71.27
2018-11-04T11:07:30.340Z,77.03
2018-11-04T11:10:02.231Z,77.87
2018-11-04T11:12:31.624Z,80.00
2018-11-04T11:15:00.487Z,70.20
2018-11-04T11:17:30.057Z,70.50
2018-11-04T11:19:59.032Z,72.90
2018-11-04T11:22:28.398Z,65.97
2018-11-04T11:24:57.619Z,74.57
2018-11-04T11:27:27.002Z,72.33
2018-11-04T11:29:56.556Z,66.90
2018-11-04T11:32:26.173Z,64.23
2018-11-04T11:34:55.609Z,63.37
2018-11-04T11:37:24.507Z,63.83
2018-11-04T11:39:54.065Z,64.13
2018-11-04T11:42:22.935Z,66.97
2018-11-04T11:44:52.523Z,55.07
2018-11-04T11:47:21.758Z,65.50
2018-11-04T11:49:50.275Z,59.67
2018-11-04T11:52:19.079Z,55.13
2018-11-04T11:54:48.623Z,55.23
2018-11-04T11:57:17.816Z,54.77
2018-11-04T11:59:47.188Z,52.90
2018-11-04T12:02:16.452Z,58.17
2018-11-04T12:04:45.458Z,52.47
2018-11-04T12:07:14.946Z,50.63
2018-11-04T12:09:44.133Z,48.00
2018-11-04T12:12:13.026Z,50.73
2018-11-04T12:14:42.218Z,44.17
2018-11-04T12:17:11.173Z,46.83
2018-11-04T12:19:40.021Z,51.23
2018-11-04T12:22:08.482Z,50.57
2018-11-04T12:24:37.410Z,50.90
2018-11-04T12:27:06.727Z,43.73
2018-11-04T12:29:35.684Z,43.87
2018-11-04T12:32:04.560Z,46.93
2018-11-04T12:34:33.867Z,47.50
2018-11-04T12:37:02.448Z,51.47
2018-11-04T12:39:30.947Z,36.20
2018-11-04T12:41:59.375Z,38.43
2018-11-04T12:44:28.495Z,42.97
2018-11-04T12:46:56.827Z,46.50
2018-11-04T12:49:25.149Z,46.23
2018-11-04T12:51:53.482Z,47.80
2018-11-04T12:54:21.866Z,42.50
2018-11-04T12:56:50.451Z,42.10
2018-11-04T12:59:18.970Z,32.33
2018-11-04T13:01:47.469Z,33.27
2018-11-04T13:04:15.982Z,25.03
2018-11-04T13:06:44.797Z,22.00
2018-11-04T13:09:13.115Z,17.73
2018-11-04T13:11:41.615Z,24.60
2018-11-04T13:14:10.438Z,21.30
2018-11-04T13:16:38.967Z,21.30
2018-11-04T13:19:07.463Z,18.43
2018-11-04T13:21:36.048Z,15.17
2018-11-04T13:24:04.710Z,22.30
2018-11-04T13:26:33.336Z,22.60
2018-11-04T13:29:02.183Z,18.90
2018-11-04T13:31:30.617Z,15.70
2018-11-04T13:33:58.928Z,18.33
2018-11-04T13:36:27.395Z,18.70
2018-11-04T13:38:55.811Z,21.17
2018-11-04T13:41:24.216Z,27.10
2018-11-04T13:43:53.697Z,18.77
2018-11-04T13:46:23.187Z,27.43
2018-11-04T13:48:53.147Z,26.20
2018-11-04T13:51:22.152Z,22.87
2018-11-04T13:53:51.419Z,23.07
2018-11-04T13:56:22.008Z,21.00
2018-11-04T13:58:52.314Z,20.20
2018-11-04T14:01:22.126Z,23.07
2018-11-04T14:03:51.602Z,24.33
2018-11-04T14:06:20.844Z,20.80
2018-11-04T14:08:50.225Z,28.60
2018-11-04T14:11:19.114Z,24.70
2018-11-04T14:13:48.564Z,25.67
2018-11-04T14:16:17.775Z,23.67
2018-11-04T14:18:47.061Z,23.37
2018-11-04T14:21:16.066Z,20.93
2018-11-04T14:23:45.508Z,25.63
2018-11-04T14:26:14.310Z,24.93
2018-11-04T14:28:44.009Z,23.73
2018-11-04T14:31:12.881Z,24.90
2018-11-04T14:33:42.755Z,23.27
2018-11-04T14:36:12.334Z,25.40
2018-11-04T14:38:41.830Z,26.53
2018-11-04T14:41:11.449Z,25.67
2018-11-04T14:43:40.336Z,25.13
2018-11-04T14:46:10.208Z,27.50
2018-11-04T14:48:39.276Z,25.80
2018-11-04T14:51:08.490Z,29.20
2018-11-04T14:53:37.678Z,23.00
2018-11-04T14:56:07.125Z,22.77
2018-11-04T14:58:36.519Z,29.13
2018-11-04T15:01:06.253Z,27.10
2018-11-04T15:03:34.575Z,29.67
2018-11-04T15:06:03.022Z,29.33
2018-11-04T15:08:31.448Z,26.83
2018-11-04T15:10:59.893Z,26.63
2018-11-04T15:13:28.308Z,28.63
2018-11-04T15:15:56.882Z,26.13
2018-11-04T15:18:25.420Z,28.17
2018-11-04T15:20:53.929Z,23.83
2018-11-04T15:23:22.345Z,24.80
2018-11-04T15:25:50.862Z,33.40
2018-11-04T15:28:19.294Z,28.47
2018-11-04T15:30:47.720Z,30.23
2018-11-04T15:33:16.259Z,28.00
2018-11-04T15:35:44.698Z,29.37
2018-11-04T15:38:13.303Z,30.80
2018-11-04T15:40:41.879Z,29.23
2018-11-04T15:43:10.188Z,28.40
2018-11-04T15:45:38.887Z,26.50
2018-11-04T15:48:07.266Z,28.67
2018-11-04T15:50:35.673Z,30.37
2018-11-04T15:53:04.075Z,31.20
2018-11-04T15:55:32.553Z,29.77
2018-11-04T15:58:00.967Z,26.70
2018-11-04T16:00:29.371Z,28.80
2018-11-04T16:02:57.882Z,26.40
2018-11-04T16:05:26.556Z,25.47
2018-11-04T16:07:54.751Z,24.50
2018-11-04T16:10:23.104Z,25.93
2018-11-04T16:12:51.896Z,35.83
2018-11-04T16:15:20.223Z,24.87
2018-11-04T16:17:48.659Z,31.43
2018-11-04T16:20:17.171Z,29.13
2018-11-04T16:22:46.090Z,28.07
2018-11-04T16:25:15.731Z,27.07
2018-11-04T16:27:45.749Z,28.90
2018-11-04T16:30:15.153Z,29.90
2018-11-04T16:32:44.214Z,27.30
2018-11-04T16:35:13.944Z,31.17
2018-11-04T16:37:44.152Z,25.37
2018-11-04T16:40:13.803Z,27.97
2018-11-04T16:42:43.134Z,29.33
2018-11-04T16:45:14.781Z,26.50
2018-11-04T16:47:44.378Z,25.83
2018-11-04T16:50:14.670Z,26.80
2018-11-04T16:52:44.666Z,31.13
2018-11-04T16:55:14.395Z,32.57
2018-11-04T16:57:44.179Z,27.07
2018-11-04T17:00:13.815Z,31.03
2018-11-04T17:02:43.243Z,33.67
2018-11-04T17:05:13.440Z,27.57
2018-11-04T17:07:43.522Z,29.97
2018-11-04T17:10:12.443Z,31.97
2018-11-04T17:12:42.285Z,31.77
2018-11-04T17:15:13.348Z,32.00
2018-11-04T17:17:43.246Z,32.33
2018-11-04T17:20:16.557Z,34.03
2018-11-04T17:22:46.521Z,31.17
2018-11-04T17:25:15.888Z,31.10
2018-11-04T17:27:44.855Z,38.50
2018-11-04T17:30:16.762Z,38.10
2018-11-04T17:32:45.904Z,34.00
2018-11-04T17:35:15.719Z,34.70
2018-11-04T17:37:45.318Z,35.47
2018-11-04T17:40:14.796Z,35.73
2018-11-04T17:42:43.590Z,38.97
2018-11-04T17:45:13.499Z,40.33
2018-11-04T17:47:43.270Z,40.33
2018-11-04T17:50:14.192Z,39.67
2018-11-04T17:52:43.271Z,41.57
2018-11-04T17:55:11.745Z,43.10
2018-11-04T17:57:40.183Z,40.07
2018-11-04T18:00:09.921Z,40.43
2018-11-04T18:02:38.402Z,39.63
2018-11-04T18:05:07.514Z,36.43
2018-11-04T18:07:35.911Z,36.90
2018-11-04T18:10:04.511Z,39.00
2018-11-04T18:12:32.971Z,38.60
2018-11-04T18:15:01.442Z,33.60
2018-11-04T18:17:31.127Z,34.23
2018-11-04T18:19:59.691Z,40.57
2018-11-04T18:22:28.140Z,43.17
2018-11-04T18:24:56.593Z,37.53
2018-11-04T18:27:25.469Z,37.27
2018-11-04T18:29:54.384Z,42.87
2018-11-04T18:32:23.183Z,35.87
2018-11-04T18:34:51.583Z,33.80
2018-11-04T18:37:20.033Z,33.33
2018-11-04T18:39:48.566Z,37.30
2018-11-04T18:42:17.007Z,39.30
2018-11-04T18:44:45.858Z,36.37
2018-11-04T18:47:14.393Z,43.43
2018-11-04T18:49:42.903Z,38.00
2018-11-04T18:52:11.350Z,41.17
2018-11-04T18:54:39.862Z,36.00
2018-11-04T18:57:08.479Z,40.90
2018-11-04T18:59:38.152Z,41.20
2018-11-04T19:02:07.157Z,46.10
2018-11-04T19:04:36.141Z,40.77
2018-11-04T19:07:09.450Z,38.97
2018-11-04T19:09:41.808Z,39.53
2018-11-04T19:12:10.327Z,38.33
2018-11-04T19:14:38.678Z,38.40
2018-11-04T19:17:07.026Z,36.60
2018-11-04T19:19:35.364Z,35.63
2018-11-04T19:22:04.025Z,40.77
2018-11-04T19:24:32.371Z,38.80
2018-11-04T19:27:01.295Z,38.47
2018-11-04T19:29:30.428Z,46.83
2018-11-04T19:31:58.790Z,37.13
2018-11-04T19:34:27.143Z,38.00
2018-11-04T19:36:55.467Z,37.07
2018-11-04T19:39:24.070Z,38.63
2018-11-04T19:41:52.613Z,37.53
2018-11-04T19:44:21.072Z,38.97
2018-11-04T19:46:49.536Z,36.57
2018-11-04T19:49:18.100Z,35.90
2018-11-04T19:51:46.927Z,45.90
2018-11-04T19:54:15.323Z,43.00
2018-11-04T19:56:43.662Z,47.53
2018-11-04T19:59:12.219Z,44.10
2018-11-04T20:01:40.894Z,47.90
2018-11-04T20:04:09.723Z,43.00
2018-11-04T20:06:38.210Z,44.60
2018-11-04T20:09:10.182Z,44.30
2018-11-04T20:11:38.567Z,47.20
2018-11-04T20:14:12.373Z,46.97
2018-11-04T20:16:41.259Z,44.23
2018-11-04T20:19:15.151Z,54.13
2018-11-04T20:21:43.776Z,48.00
2018-11-04T20:24:17.777Z,45.93
2018-11-04T20:29:28.143Z,49.37
2018-11-04T20:32:01.815Z,44.80
2018-11-04T20:34:30.369Z,43.27
2018-11-04T20:36:58.717Z,39.77
2018-11-04T20:39:32.435Z,46.83
2018-11-04T20:42:00.775Z,37.90
2018-11-04T20:44:29.349Z,36.93
2018-11-04T20:46:57.688Z,36.10
2018-11-04T20:49:31.340Z,36.17
2018-11-04T20:51:59.928Z,35.10
2018-11-04T20:54:28.853Z,42.30
2018-11-04T20:57:02.776Z,37.77
2018-11-04T20:59:31.179Z,35.03
2018-11-04T21:01:59.583Z,36.17
2018-11-04T21:04:27.947Z,34.40
2018-11-04T21:06:56.342Z,43.83
2018-11-04T21:09:26.875Z,35.87
2018-11-04T21:11:55.185Z,33.97
2018-11-04T21:14:23.776Z,30.27
2018-11-04T21:16:52.108Z,33.20
2018-11-04T21:19:20.667Z,31.97
2018-11-04T21:21:49.039Z,31.83
2018-11-04T21:24:17.451Z,28.37
2018-11-04T21:26:45.815Z,29.37
2018-11-04T21:29:14.440Z,32.00
2018-11-04T21:31:43.266Z,26.93
2018-11-04T21:34:11.596Z,28.37
2018-11-04T21:36:40.251Z,31.93
2018-11-04T21:39:09.665Z,28.57
2018-11-04T21:41:38.031Z,25.47
2018-11-04T21:44:06.805Z,27.00
2018-11-04T21:46:36.503Z,28.30
2018-11-04T21:49:05.343Z,23.73
2018-11-04T21:51:33.740Z,25.40
2018-11-04T21:54:02.240Z,25.47
2018-11-04T21:56:30.734Z,24.80
2018-11-04T21:58:58.915Z,28.20
2018-11-04T22:01:27.957Z,26.27
2018-11-04T22:03:56.498Z,27.77
2018-11-04T22:06:25.541Z,28.87
2018-11-04T22:08:53.885Z,27.40
2018-11-04T22:11:22.269Z,27.90
2018-11-04T22:13:50.857Z,31.00
2018-11-04T22:16:19.144Z,28.60
2018-11-04T22:18:47.504Z,29.00
2018-11-04T22:21:15.944Z,31.03
2018-11-04T22:23:44.642Z,29.13
2018-11-04T22:26:12.985Z,28.67
2018-11-04T22:28:42.174Z,25.53
2018-11-04T22:31:10.621Z,24.23
2018-11-04T22:33:38.995Z,24.63
2018-11-04T22:36:07.362Z,24.10
2018-11-04T22:38:35.739Z,26.33
2018-11-04T22:41:04.052Z,25.20
2018-11-04T22:43:32.428Z,23.87
2018-11-04T22:46:00.938Z,23.40
2018-11-04T22:48:29.271Z,21.70
2018-11-04T22:50:57.599Z,25.10
2018-11-04T22:53:27.148Z,26.80
2018-11-04T22:55:56.825Z,25.00
2018-11-04T22:58:25.962Z,23.67
2018-11-04T23:01:01.171Z,25.60
2018-11-04T23:03:30.930Z,21.97
2018-11-04T23:06:06.151Z,29.17
2018-11-04T23:08:35.215Z,23.27
2018-11-04T23:11:03.824Z,23.53
2018-11-04T23:13:33.426Z,22.40
2018-11-04T23:16:02.004Z,21.80
2018-11-04T23:18:30.972Z,19.47
2018-11-04T23:20:59.353Z,21.23
2018-11-04T23:23:27.764Z,23.10
2018-11-04T23:25:56.074Z,25.03
2018-11-04T23:28:24.664Z,21.73
2018-11-04T23:30:54.197Z,20.33
2018-11-04T23:33:23.633Z,21.63
2018-11-04T23:35:51.967Z,23.07
2018-11-04T23:38:20.402Z,22.63
2018-11-04T23:40:48.824Z,22.90
2018-11-04T23:43:17.159Z,21.33
2018-11-04T23:45:45.490Z,20.67
2018-11-04T23:48:14.819Z,19.80
2018-11-04T23:50:43.994Z,21.47
2018-11-04T23:53:12.380Z,16.53
2018-11-04T23:55:40.767Z,18.50
2018-11-04T23:58:10.723Z,19.63
